Aérodrome :
LOGIN :

S'inscrire | Disclaimer

   EN    FR    IT 

 










Légende :    VFR   VFR Marginal   IFR   IFR Intensif   IFR Très Intensif
Visi : 
Plafond : 
>= 8 km
>= 3000ft
5 à 8 km
1000 à 3000 ft
1500m à 5 km
500 à 1000 ft
800 à 1500m
200 à 500 ft
< 800m
< 200 ft
Symboles :   Orages  Brouillard  Fortes neiges  Fortes précipitations  Vent > 20 kt
SIGMETs :   Divers  Orages  Givrage  Turbulence  Onde Orograph.  Cendres Volcan.







- Altitude de l'aérodrome : 0 ft


ETEB - Ansbach Army Heliport

DERNIER METAR :
  • 220401Z AUTO 14011KT 8000 -DZ BR FEW007 OVC011 M01/M02 A2985 RMK AO2 SLPNO

METARs EXPIRÉS :
  • 220340Z AUTO 13010KT 5000 -UP BR FEW006 OVC009 M02/M02 A2985 RMK AO2 SNE30UPB30E34SNB34E36UPB36 CIG 009V011 SLPNO
  • 220256Z AUTO 13006KT 4400 -SN BR OVC013 M02/M02 A2988 RMK AO2 SLPNO P0001 60001 T10171024 57022
  • 220242Z AUTO 13007KT 4400 -SN BR FEW006 OVC013 M02/M02 A2988 RMK AO2 SLPNO
  • 220226Z AUTO 14006KT 5000 -SN BR OVC010 M02/M03 A2989 RMK AO2 CIG 010V012 SLPNO
  • 220211Z AUTO 13006KT 4400 -SN BR OVC013 M02/M03 A2989 RMK AO2 SLPNO
  • 220156Z AUTO 13006KT 4000 -SN BR OVC015 M02/M03 A2990 RMK AO2 VIS 4000V5000 UPB21E30SNB30 SLPNO P0000 T10181026
  • 220136Z AUTO 15005KT 8000 BLSN BR BKN016 M02/M03 A2990 RMK AO2 UPB21E30SNB30 CIG 016V032 SLPNO
  • 220121Z AUTO 14006KT 9999 -UP SCT032 M02/M03 A2991 RMK AO2 UPB21 SLPNO

TAF AMD TAF ETEB
Valide du 21 à 22h jusqu'au 23 à 04h UTC


212248Z 2122/2304 VRB06KT 6000 BR SCT030 QNH2999INS
TEMPO 2122/2124 3200 BR
BECMG 2123/2124 VRB06KT 6000 BR FEW020 QNH2991INS
BECMG 2201/2202 13009KT 5000 -SHSN BKN010 620109 QNH2981INS
BECMG 2207/2208 15012KT 5000 -SHRASN OVC007 620079 QNH2980INS
BECMG 2209/2210 22012KT 6000 -SHRA OVC007 620079 QNH2277INS
TEMPO 2210/2215 25012G20KT
BECMG 2216/2217 30012KT 6000 -SHRA OVC007 620079 QNH2284INS
BECMG 2222/2223 27009KT 6000 -SHRA OVC010 620109 QNH3001INS TX04/2215Z TNM04/2222Z
Pas de NOTAMs connus pour ce terrain.
1 SIGMET publié pour la FIR Langen (EDGG) :
 
Givrage fort avec pluie surfondue
EDGG SIGMET 6 VALID 220400/220600 EDZF
EDGG LANGEN FIR SEV ICE (FZRA) OBS WI N5123 E00916 - N5120 E01031 - N5017 E01022 - N4929 E01059 - N4808 E00932 - N4905 E00743 - N4957 E00649 - N5123 E00916 SFC/3000FT MOV SE WKN=



MET'MAP, la Météo Aéronautique d'un coup d'oeil ! - Copyright ORBIFLY Décembre 2007 - Disclaimer

ORBIFLY MET'MAP TEAM :

Programmation & Développement : Alexandra Zaïnal
Conception & Développement : Baudouin d'Aumeries
Co-Programmation & Développement : Marc-Olivier Méhu
Soutien technique & logistique : Manuel Goepfert

Contact : metmap@orbifly.com




SOURCES & CREDITS :

   NOAA